Time;durP1;ratioP1;P1;durP2;ratioP2;P2;SDS_P1;SDS_P2;PMS_P1;PMS_P2;Temp;Humidity;BMP_temperature;BMP_pressure;BME280_temperature;BME280_humidity;BME280_pressure;Samples;Min_cycle;Max_cycle;Signal;HPM_P1;HPM_P2
2022/03/23 00:02:03;;;;;;;36.35;29.08;;;8.60;66.90;;;;;;5018602;28;20079;-52
2022/03/23 00:04:47;;;;;;;38.95;29.05;;;8.50;69.40;;;;;;5032783;28;20087;-55
2022/03/23 00:07:31;;;;;;;37.22;29.20;;;8.60;70.00;;;;;;5032271;28;20472;-57
2022/03/23 00:10:15;;;;;;;35.53;27.38;;;8.70;70.40;;;;;;5032331;28;20084;-54
2022/03/23 00:13:00;;;;;;;39.67;28.73;;;8.60;69.30;;;;;;5032482;28;20051;-55
2022/03/23 00:15:45;;;;;;;34.53;27.88;;;8.50;69.10;;;;;;5032292;28;20410;-54
2022/03/23 00:18:29;;;;;;;36.90;29.10;;;8.40;69.10;;;;;;5031479;28;20037;-57
2022/03/23 00:21:14;;;;;;;35.22;28.77;;;8.40;69.40;;;;;;5031703;28;20072;-54
2022/03/23 00:23:58;;;;;;;37.67;28.27;;;8.50;69.20;;;;;;5031810;28;20461;-55
2022/03/23 00:26:42;;;;;;;36.47;25.50;;;8.40;68.50;;;;;;5031499;28;20099;-54
2022/03/23 00:29:26;;;;;;;36.88;27.73;;;8.30;68.80;;;;;;5032651;28;20394;-55
2022/03/23 00:32:14;;;;;;;38.20;28.02;;;8.20;69.70;;;;;;5034106;28;20540;-55
2022/03/23 00:35:00;;;;;;;37.05;29.23;;;8.30;70.40;;;;;;5030271;28;20413;-55
2022/03/23 00:37:46;;;;;;;34.83;28.33;;;8.20;70.30;;;;;;5031874;28;20059;-50
2022/03/23 00:40:30;;;;;;;54.40;37.47;;;8.20;70.70;;;;;;5031496;28;20393;-57
2022/03/23 00:43:15;;;;;;;51.22;35.67;;;8.20;71.10;;;;;;5019450;28;20040;-55
2022/03/23 00:46:00;;;;;;;38.28;29.17;;;8.20;71.90;;;;;;5032336;28;20488;-56
2022/03/23 00:48:44;;;;;;;80.05;50.75;;;8.30;72.70;;;;;;5032705;28;20040;-54
2022/03/23 00:51:28;;;;;;;44.45;32.17;;;8.30;73.70;;;;;;5031720;28;20033;-59
2022/03/23 00:54:12;;;;;;;37.63;30.23;;;8.20;73.40;;;;;;5032144;28;20083;-53
2022/03/23 00:56:56;;;;;;;40.33;30.27;;;8.10;74.10;;;;;;5032139;28;20124;-52
2022/03/23 00:59:40;;;;;;;43.63;31.25;;;8.10;74.90;;;;;;5032028;28;20106;-51
2022/03/23 01:02:24;;;;;;;35.15;30.40;;;8.10;75.20;;;;;;5031985;28;20049;-56
2022/03/23 01:05:11;;;;;;;39.03;30.55;;;8.10;75.70;;;;;;5031780;28;20032;-51
2022/03/23 01:07:56;;;;;;;38.47;29.38;;;8.10;76.00;;;;;;5016314;28;20064;-52
2022/03/23 01:10:40;;;;;;;37.17;28.88;;;8.00;76.40;;;;;;5012786;28;20076;-52
2022/03/23 01:13:24;;;;;;;34.17;29.25;;;7.90;76.80;;;;;;5029466;28;20028;-52
2022/03/23 01:16:08;;;;;;;34.05;27.27;;;7.90;77.20;;;;;;5031643;28;20516;-54
2022/03/23 01:18:52;;;;;;;37.33;27.67;;;7.80;76.50;;;;;;5031280;28;20037;-51
2022/03/23 01:21:37;;;;;;;34.03;27.00;;;7.60;75.70;;;;;;5033257;28;20092;-53
2022/03/23 01:24:21;;;;;;;39.33;28.20;;;7.50;75.70;;;;;;5035621;28;20052;-51
2022/03/23 01:27:05;;;;;;;36.70;27.45;;;7.40;75.80;;;;;;5035255;28;20110;-53
2022/03/23 01:29:49;;;;;;;33.30;26.00;;;7.30;76.10;;;;;;5035555;28;20103;-52
2022/03/23 01:32:35;;;;;;;34.45;25.85;;;7.40;74.80;;;;;;5026714;28;20029;-58
2022/03/23 01:35:20;;;;;;;34.55;26.40;;;7.50;74.60;;;;;;5034570;28;20044;-57
2022/03/23 01:38:04;;;;;;;35.58;25.50;;;7.40;74.20;;;;;;5020299;28;20570;-54
2022/03/23 01:40:48;;;;;;;32.65;25.95;;;7.30;73.70;;;;;;5034642;28;20092;-52
2022/03/23 01:43:33;;;;;;;34.33;27.15;;;7.30;74.00;;;;;;5034660;28;20028;-57
2022/03/23 01:46:19;;;;;;;35.13;28.77;;;7.20;75.00;;;;;;5034458;28;20045;-51
2022/03/23 01:49:03;;;;;;;35.03;27.40;;;7.20;76.70;;;;;;5034753;28;20052;-56
2022/03/23 01:51:47;;;;;;;38.78;27.13;;;7.30;78.10;;;;;;5034631;28;20045;-52
2022/03/23 01:54:31;;;;;;;39.00;28.05;;;7.20;78.40;;;;;;5034422;28;20044;-52
2022/03/23 01:57:17;;;;;;;34.33;28.08;;;7.20;79.50;;;;;;5034688;28;20094;-57
2022/03/23 02:00:05;;;;;;;35.75;27.63;;;7.30;80.90;;;;;;5034637;28;20036;-54
2022/03/23 02:02:49;;;;;;;36.25;28.45;;;7.30;81.80;;;;;;5034326;28;20554;-49
2022/03/23 02:05:33;;;;;;;36.33;29.10;;;7.30;81.30;;;;;;5034403;28;20044;-53
2022/03/23 02:08:18;;;;;;;37.55;28.42;;;7.30;82.70;;;;;;5034389;28;20413;-52
2022/03/23 02:11:02;;;;;;;39.60;28.55;;;7.20;84.10;;;;;;5034131;28;20040;-53
2022/03/23 02:13:48;;;;;;;37.38;28.98;;;7.30;84.30;;;;;;5034038;28;20091;-55
2022/03/23 02:16:45;;;;;;;37.22;29.17;;;7.40;84.10;;;;;;5034749;28;20045;-53
2022/03/23 02:19:29;;;;;;;38.45;28.33;;;7.40;84.50;;;;;;5033869;28;20048;-52
2022/03/23 02:22:14;;;;;;;37.20;29.83;;;7.40;84.90;;;;;;5033913;28;20032;-53
2022/03/23 02:24:59;;;;;;;36.78;30.75;;;7.20;85.00;;;;;;5034793;28;20087;-52
2022/03/23 02:27:43;;;;;;;39.67;28.20;;;7.10;85.90;;;;;;5019251;28;20040;-54
2022/03/23 02:30:27;;;;;;;35.92;28.17;;;6.90;86.60;;;;;;5033640;28;20097;-51
2022/03/23 02:33:12;;;;;;;39.55;29.35;;;6.80;86.20;;;;;;5017552;28;20441;-57
2022/03/23 02:35:56;;;;;;;38.92;29.10;;;6.60;87.50;;;;;;5033317;28;20508;-54
2022/03/23 02:38:41;;;;;;;35.05;29.02;;;6.60;89.40;;;;;;5033450;28;20564;-56
2022/03/23 02:41:25;;;;;;;35.50;26.67;;;6.50;89.40;;;;;;5034013;28;20083;-53
2022/03/23 02:44:13;;;;;;;37.53;28.97;;;6.60;87.50;;;;;;5033881;28;20110;-53
2022/03/23 02:46:57;;;;;;;38.80;29.35;;;6.50;87.90;;;;;;5033518;28;20096;-53
2022/03/23 02:49:41;;;;;;;36.75;27.27;;;6.60;88.80;;;;;;5013916;28;20041;-54
2022/03/23 02:52:27;;;;;;;38.00;28.92;;;6.70;89.20;;;;;;5016849;28;20037;-54
2022/03/23 03:02:00;;;;;;;36.17;27.75;;;6.70;90.20;;;;;;5033288;28;20040;-55
2022/03/23 03:04:44;;;;;;;36.40;26.53;;;6.60;90.70;;;;;;4998804;28;20504;-51
2022/03/23 03:07:28;;;;;;;32.65;26.27;;;6.60;91.30;;;;;;5015156;28;20129;-54
2022/03/23 03:10:13;;;;;;;34.63;26.45;;;6.60;91.00;;;;;;5033479;28;20084;-53
2022/03/23 03:12:57;;;;;;;35.95;26.10;;;6.60;91.10;;;;;;5033122;28;20401;-53
2022/03/23 03:15:41;;;;;;;34.15;26.30;;;6.60;91.60;;;;;;5033283;28;20107;-53
2022/03/23 03:18:25;;;;;;;35.03;26.75;;;6.60;92.30;;;;;;5032876;28;20052;-57
2022/03/23 03:21:10;;;;;;;36.42;25.92;;;6.50;92.50;;;;;;5033309;28;20041;-53
2022/03/23 03:23:55;;;;;;;33.70;24.45;;;6.60;92.60;;;;;;5032722;28;20057;-55
2022/03/23 03:26:40;;;;;;;35.83;25.98;;;6.50;92.60;;;;;;5033472;28;20091;-49
2022/03/23 03:29:26;;;;;;;31.38;26.33;;;6.40;93.70;;;;;;5018017;28;20098;-54
2022/03/23 03:32:10;;;;;;;30.83;24.80;;;6.40;94.00;;;;;;5033014;28;20050;-51
2022/03/23 03:34:54;;;;;;;34.58;25.30;;;6.40;94.20;;;;;;5032849;28;20437;-54
2022/03/23 03:37:39;;;;;;;31.75;25.33;;;6.40;94.30;;;;;;5033096;28;20183;-50
2022/03/23 03:40:23;;;;;;;33.55;25.92;;;6.40;94.50;;;;;;5018108;28;20152;-54
2022/03/23 03:43:07;;;;;;;34.25;25.40;;;6.40;94.50;;;;;;5032180;28;20098;-54
2022/03/23 03:45:52;;;;;;;36.55;25.95;;;6.30;94.50;;;;;;5031560;28;20121;-53
2022/03/23 03:48:37;;;;;;;33.42;25.50;;;6.30;94.80;;;;;;5032922;28;20080;-51
2022/03/23 03:51:22;;;;;;;34.55;26.35;;;6.30;94.80;;;;;;5032363;28;20033;-56
2022/03/23 03:54:06;;;;;;;32.70;26.25;;;6.30;94.60;;;;;;5032983;28;20040;-54
2022/03/23 03:56:50;;;;;;;32.60;26.33;;;6.20;94.80;;;;;;5032817;28;20033;-53
2022/03/23 03:59:34;;;;;;;36.08;25.77;;;6.30;94.80;;;;;;5032867;28;20397;-54
2022/03/23 04:02:21;;;;;;;36.28;25.27;;;6.20;94.90;;;;;;5032689;28;20081;-55
2022/03/23 04:05:06;;;;;;;37.05;26.33;;;6.20;95.10;;;;;;5033572;28;20417;-55
2022/03/23 04:07:50;;;;;;;33.40;25.65;;;6.10;95.20;;;;;;5032982;28;20488;-54
2022/03/23 04:10:34;;;;;;;36.17;26.38;;;6.00;95.30;;;;;;5033789;28;20136;-50
2022/03/23 04:13:18;;;;;;;35.63;27.17;;;6.00;95.50;;;;;;5033455;28;20079;-53
2022/03/23 04:16:03;;;;;;;30.65;24.42;;;5.90;95.70;;;;;;5033288;28;20067;-52
2022/03/23 04:18:47;;;;;;;37.80;25.38;;;5.90;95.60;;;;;;5014232;28;20037;-52
2022/03/23 04:21:32;;;;;;;31.58;24.83;;;5.90;95.70;;;;;;5016997;28;20032;-49
2022/03/23 04:24:16;;;;;;;36.50;27.13;;;5.80;95.90;;;;;;5032648;28;20025;-55
2022/03/23 04:27:00;;;;;;;33.47;24.98;;;5.80;96.10;;;;;;5032675;28;20045;-53
2022/03/23 04:29:44;;;;;;;35.25;25.42;;;5.80;95.90;;;;;;5032555;28;20032;-52
2022/03/23 04:32:28;;;;;;;40.67;28.80;;;5.70;96.00;;;;;;5032473;28;20148;-54
2022/03/23 04:35:14;;;;;;;38.40;26.75;;;5.70;96.00;;;;;;5032383;28;20532;-54
2022/03/23 04:37:58;;;;;;;36.05;26.20;;;5.50;96.20;;;;;;5017822;28;20048;-54
2022/03/23 04:40:42;;;;;;;31.58;25.77;;;5.50;95.90;;;;;;5032200;28;20522;-52
2022/03/23 04:43:25;;;;;;;33.70;25.92;;;5.50;96.50;;;;;;5012521;28;20049;-52
2022/03/23 04:46:09;;;;;;;34.00;25.13;;;5.50;96.30;;;;;;5026545;28;20072;-53
2022/03/23 04:48:54;;;;;;;32.75;25.33;;;5.50;96.20;;;;;;5031962;28;20060;-55
2022/03/23 04:51:38;;;;;;;37.80;25.65;;;5.50;96.40;;;;;;5016688;28;20504;-54
2022/03/23 04:54:22;;;;;;;32.83;24.63;;;5.40;96.50;;;;;;5032023;28;20040;-52
2022/03/23 04:57:06;;;;;;;34.05;25.17;;;5.30;96.40;;;;;;5014906;28;20044;-52
2022/03/23 04:59:51;;;;;;;33.75;24.70;;;5.30;96.60;;;;;;5016315;28;20056;-53
2022/03/23 05:02:39;;;;;;;52.72;27.17;;;5.30;96.70;;;;;;5018779;28;20064;-54
2022/03/23 05:05:24;;;;;;;38.83;25.70;;;5.40;96.60;;;;;;5035752;28;20044;-55
2022/03/23 05:08:08;;;;;;;33.15;23.95;;;5.50;96.40;;;;;;5034613;28;20093;-54
2022/03/23 05:10:52;;;;;;;36.42;24.52;;;5.50;96.40;;;;;;5020386;28;20068;-54
2022/03/23 05:13:37;;;;;;;35.13;25.20;;;5.50;96.60;;;;;;5035134;28;20557;-51
2022/03/23 05:16:21;;;;;;;31.13;24.63;;;5.50;96.80;;;;;;5035258;28;20421;-51
2022/03/23 05:19:05;;;;;;;41.13;26.87;;;5.50;96.70;;;;;;5035482;28;20125;-54
2022/03/23 05:21:49;;;;;;;36.53;25.27;;;5.50;96.60;;;;;;5020426;28;20144;-50
2022/03/23 05:24:33;;;;;;;41.55;25.73;;;5.60;96.50;;;;;;5034868;28;20080;-54
2022/03/23 05:27:17;;;;;;;46.45;26.50;;;5.50;96.60;;;;;;5034929;28;20543;-52
2022/03/23 05:30:04;;;;;;;48.13;27.70;;;5.60;96.50;;;;;;5018908;28;20061;-55
2022/03/23 05:32:49;;;;;;;37.72;26.40;;;5.60;96.30;;;;;;5034640;28;20048;-57
2022/03/23 05:35:33;;;;;;;34.53;24.83;;;5.60;96.40;;;;;;5035061;28;20075;-54
2022/03/23 05:38:17;;;;;;;35.58;25.85;;;5.60;96.30;;;;;;5034695;28;20056;-52
2022/03/23 05:41:01;;;;;;;33.33;26.07;;;5.60;96.00;;;;;;5034749;28;20056;-54
2022/03/23 05:43:45;;;;;;;38.00;25.73;;;5.50;95.80;;;;;;5019428;28;20090;-51
2022/03/23 05:46:29;;;;;;;38.90;26.83;;;5.50;95.60;;;;;;5020015;28;20036;-54
2022/03/23 05:49:14;;;;;;;60.93;28.93;;;5.60;95.40;;;;;;5034394;28;20048;-55
2022/03/23 05:51:58;;;;;;;66.40;28.30;;;5.50;95.10;;;;;;5034965;28;20443;-55
2022/03/23 05:54:43;;;;;;;59.97;30.25;;;5.50;95.00;;;;;;5034716;28;20409;-55
2022/03/23 05:57:28;;;;;;;112.80;34.72;;;5.60;94.80;;;;;;5034746;28;20455;-54
2022/03/23 06:00:13;;;;;;;59.63;29.38;;;5.70;95.10;;;;;;5034427;28;20051;-49
2022/03/23 06:02:57;;;;;;;36.95;26.25;;;5.70;95.40;;;;;;5034295;28;20083;-55
2022/03/23 06:05:41;;;;;;;43.42;26.92;;;5.70;95.90;;;;;;5035218;28;20044;-53
2022/03/23 06:08:25;;;;;;;46.58;28.65;;;5.80;96.00;;;;;;5026634;28;20067;-54
2022/03/23 06:11:09;;;;;;;40.47;26.95;;;5.80;96.00;;;;;;5033581;28;20504;-52
2022/03/23 06:13:53;;;;;;;36.35;26.67;;;5.80;96.10;;;;;;5032874;28;20032;-54
2022/03/23 06:16:37;;;;;;;46.00;29.55;;;5.80;96.00;;;;;;5034720;28;20063;-54
2022/03/23 06:19:22;;;;;;;49.47;30.73;;;5.70;95.80;;;;;;5019314;28;20055;-56
2022/03/23 06:22:09;;;;;;;43.28;31.33;;;5.60;95.80;;;;;;5024203;28;20056;-55
2022/03/23 06:24:53;;;;;;;44.88;29.90;;;5.60;95.80;;;;;;5033656;28;20047;-56
2022/03/23 06:27:38;;;;;;;43.83;30.52;;;5.70;95.90;;;;;;5019878;28;20079;-52
2022/03/23 06:30:22;;;;;;;46.17;34.20;;;5.80;95.50;;;;;;5034240;28;20025;-53
2022/03/23 06:33:06;;;;;;;43.85;30.60;;;5.90;94.70;;;;;;5044418;28;20058;-53
2022/03/23 06:35:51;;;;;;;57.40;31.07;;;6.00;94.40;;;;;;5036156;28;20546;-53
2022/03/23 06:38:35;;;;;;;43.08;30.60;;;6.10;94.70;;;;;;5017974;28;20032;-55
2022/03/23 06:41:19;;;;;;;43.08;28.95;;;6.00;95.00;;;;;;5033612;28;20036;-50
2022/03/23 06:44:03;;;;;;;87.40;55.08;;;6.10;95.00;;;;;;5033550;28;20079;-52
2022/03/23 06:46:48;;;;;;;120.10;66.72;;;6.10;94.60;;;;;;5033681;28;20045;-55
2022/03/23 06:49:32;;;;;;;119.70;63.35;;;6.20;94.00;;;;;;5033886;28;20560;-54
2022/03/23 06:52:17;;;;;;;68.00;39.45;;;6.30;93.50;;;;;;5033254;28;20045;-53
2022/03/23 06:55:01;;;;;;;56.80;32.72;;;6.40;92.90;;;;;;5018164;28;20099;-54
2022/03/23 06:57:46;;;;;;;41.78;28.52;;;6.50;92.60;;;;;;5033994;28;20764;-51
2022/03/23 07:00:30;;;;;;;35.78;26.48;;;6.50;92.10;;;;;;5033429;28;20068;-55
2022/03/23 07:03:14;;;;;;;38.13;26.80;;;6.60;91.70;;;;;;5033604;28;20079;-54
2022/03/23 07:05:58;;;;;;;36.17;26.35;;;6.70;91.20;;;;;;5030846;28;20071;-55
2022/03/23 07:11:46;;;;;;;34.45;25.45;;;6.80;90.50;;;;;;5034364;28;20049;-55
2022/03/23 07:14:32;;;;;;;40.58;27.52;;;7.00;90.30;;;;;;5033366;28;20139;-51
2022/03/23 07:17:17;;;;;;;36.60;27.10;;;7.00;89.80;;;;;;5033403;28;20048;-52
2022/03/23 07:20:01;;;;;;;43.50;26.45;;;7.00;89.40;;;;;;5019076;28;20036;-53
2022/03/23 07:22:46;;;;;;;48.92;28.45;;;7.00;89.70;;;;;;5013555;28;20065;-52
2022/03/23 07:25:30;;;;;;;45.92;29.50;;;7.10;89.10;;;;;;5006390;28;20386;-55
2022/03/23 07:28:15;;;;;;;43.55;28.08;;;7.20;88.40;;;;;;5016229;28;20040;-53
2022/03/23 07:30:59;;;;;;;48.38;29.38;;;7.20;88.20;;;;;;5030150;28;20056;-53
2022/03/23 07:33:44;;;;;;;36.15;26.33;;;7.30;88.20;;;;;;5033535;28;20144;-55
2022/03/23 07:36:29;;;;;;;40.10;27.73;;;7.40;88.00;;;;;;5033475;28;20044;-52
2022/03/23 07:39:16;;;;;;;42.28;28.02;;;7.50;87.60;;;;;;5033092;28;20044;-51
2022/03/23 07:42:02;;;;;;;53.58;35.95;;;7.60;87.20;;;;;;5029990;28;20531;-56
2022/03/23 07:44:46;;;;;;;54.88;33.67;;;7.70;86.90;;;;;;5032200;28;20072;-53
2022/03/23 07:47:30;;;;;;;43.10;30.03;;;7.80;86.50;;;;;;5032889;28;20119;-57
2022/03/23 07:50:14;;;;;;;35.08;27.17;;;8.00;86.00;;;;;;5032939;28;20071;-56
2022/03/23 07:52:58;;;;;;;36.15;25.98;;;8.10;85.30;;;;;;5017606;28;20068;-53
2022/03/23 07:55:42;;;;;;;34.83;25.73;;;8.20;84.70;;;;;;5032885;28;20422;-52
2022/03/23 07:58:28;;;;;;;31.83;23.40;;;8.40;83.90;;;;;;5033013;28;20588;-55
2022/03/23 08:01:15;;;;;;;30.83;24.10;;;8.50;82.70;;;;;;5017417;28;20188;-51
2022/03/23 08:04:00;;;;;;;31.00;23.48;;;8.50;80.10;;;;;;5013128;28;20041;-51
2022/03/23 08:06:44;;;;;;;;;;;8.70;78.10;;;;;;5011402;28;20125;-53
2022/03/23 08:09:29;;;;;;;26.95;21.73;;;8.70;78.60;;;;;;5032592;28;19920;-53
2022/03/23 08:12:16;;;;;;;37.63;23.85;;;8.80;79.10;;;;;;5031821;28;20068;-54
2022/03/23 08:15:01;;;;;;;32.70;24.02;;;8.80;78.00;;;;;;5016876;28;20044;-51
2022/03/23 08:17:45;;;;;;;33.53;26.00;;;8.90;77.40;;;;;;5013298;28;20068;-57
2022/03/23 08:20:32;;;;;;;44.35;28.00;;;8.90;76.40;;;;;;5001754;28;20067;-52
2022/03/23 08:23:19;;;;;;;35.08;25.88;;;9.00;77.50;;;;;;5032543;28;20043;-52
2022/03/23 08:26:08;;;;;;;39.75;25.83;;;9.20;76.90;;;;;;5032819;28;20099;-53
2022/03/23 08:28:52;;;;;;;32.65;24.95;;;9.20;77.10;;;;;;5030700;28;20029;-53
2022/03/23 08:31:37;;;;;;;33.83;26.47;;;9.40;76.90;;;;;;5031418;28;20113;-52
2022/03/23 08:34:21;;;;;;;30.30;24.52;;;9.40;75.70;;;;;;5033518;28;20052;-55
2022/03/23 08:37:05;;;;;;;30.10;23.90;;;9.60;75.30;;;;;;5017358;28;20669;-55
2022/03/23 08:39:49;;;;;;;35.30;26.08;;;9.80;74.30;;;;;;5018091;28;20056;-58
2022/03/23 08:42:33;;;;;;;30.40;23.30;;;9.80;73.60;;;;;;5031784;28;20064;-59
2022/03/23 08:45:18;;;;;;;26.90;23.30;;;10.00;73.10;;;;;;5031863;28;20109;-55
2022/03/23 08:48:03;;;;;;;32.92;24.95;;;10.10;72.40;;;;;;5012615;28;20104;-54
2022/03/23 08:50:51;;;;;;;36.30;24.13;;;10.10;71.70;;;;;;5027161;28;20040;-55
2022/03/23 08:53:38;;;;;;;38.53;25.90;;;10.30;71.50;;;;;;5029165;28;20044;-57
2022/03/23 08:56:22;;;;;;;33.22;24.20;;;10.50;70.60;;;;;;5028740;28;20044;-57
2022/03/23 08:59:07;;;;;;;29.80;25.60;;;10.60;69.90;;;;;;5029860;28;20063;-58
2022/03/23 09:01:51;;;;;;;36.27;24.13;;;10.60;69.00;;;;;;5032515;28;20374;-56
2022/03/23 09:04:35;;;;;;;28.67;24.17;;;10.60;69.10;;;;;;5030733;28;20495;-57
2022/03/23 09:07:19;;;;;;;29.25;22.75;;;10.80;68.70;;;;;;5031776;28;20068;-55
2022/03/23 09:10:04;;;;;;;30.13;23.80;;;10.90;66.60;;;;;;5031709;28;20109;-60
2022/03/23 09:12:49;;;;;;;30.27;23.88;;;10.90;67.00;;;;;;5031886;28;20029;-55
2022/03/23 09:15:33;;;;;;;30.02;24.02;;;10.90;66.50;;;;;;5031908;28;20401;-53
2022/03/23 09:18:17;;;;;;;33.25;23.52;;;11.00;66.40;;;;;;5032028;28;20035;-55
2022/03/23 09:21:01;;;;;;;31.43;23.90;;;11.20;65.30;;;;;;5025469;28;20040;-56
2022/03/23 09:23:46;;;;;;;27.70;24.08;;;11.30;64.90;;;;;;5012472;28;20060;-56
2022/03/23 09:26:30;;;;;;;27.07;23.63;;;11.40;64.60;;;;;;5027196;28;20041;-57
2022/03/23 09:29:14;;;;;;;25.65;22.80;;;11.60;63.80;;;;;;5012353;28;20276;-56
2022/03/23 09:31:58;;;;;;;28.53;24.33;;;11.60;63.20;;;;;;5016239;28;20033;-54
2022/03/23 09:34:42;;;;;;;28.38;24.75;;;11.60;63.90;;;;;;5031112;28;20413;-56
2022/03/23 09:40:32;;;;;;;31.77;23.50;;;11.80;63.40;;;;;;5031212;28;20306;-57
2022/03/23 09:43:19;;;;;;;25.02;21.35;;;12.00;61.70;;;;;;5031574;28;20086;-56
2022/03/23 09:46:04;;;;;;;28.67;22.73;;;12.10;61.80;;;;;;5036201;28;20535;-55
2022/03/23 09:48:48;;;;;;;25.87;22.53;;;12.30;61.00;;;;;;5036467;28;20076;-58
2022/03/23 09:51:35;;;;;;;31.10;24.13;;;12.30;60.90;;;;;;5028069;28;20040;-59
2022/03/23 09:54:21;;;;;;;32.72;23.27;;;12.50;60.00;;;;;;5034245;28;20049;-57
2022/03/23 09:57:08;;;;;;;29.20;23.33;;;12.60;59.60;;;;;;5019288;28;20547;-57
2022/03/23 09:59:53;;;;;;;26.38;22.30;;;12.70;58.90;;;;;;5034574;28;20095;-55
2022/03/23 10:02:40;;;;;;;27.70;23.07;;;12.70;58.70;;;;;;5034547;28;20117;-55
2022/03/23 10:05:49;;;;;;;25.63;22.20;;;12.60;59.90;;;;;;5034815;28;20110;-56
2022/03/23 10:09:10;;;;;;;25.15;22.45;;;12.80;59.10;;;;;;5034650;28;20051;-55
2022/03/23 10:12:13;;;;;;;27.40;22.90;;;12.90;58.30;;;;;;5035346;28;20068;-56
2022/03/23 10:15:35;;;;;;;28.08;22.58;;;13.10;57.10;;;;;;5035075;28;20461;-56
2022/03/23 10:18:51;;;;;;;30.52;22.85;;;13.30;56.90;;;;;;5035143;28;20040;-54
2022/03/23 10:21:38;;;;;;;28.17;22.73;;;13.30;57.10;;;;;;5033684;28;20040;-57
2022/03/23 10:24:28;;;;;;;28.80;22.30;;;13.60;56.10;;;;;;5034549;28;20117;-57
2022/03/23 10:27:17;;;;;;;25.80;23.00;;;13.70;55.60;;;;;;5017104;28;20107;-56
2022/03/23 10:30:02;;;;;;;24.50;21.35;;;13.70;55.70;;;;;;5030524;28;20044;-55
2022/03/23 10:32:46;;;;;;;26.85;23.52;;;13.90;55.20;;;;;;5033567;28;20033;-54
2022/03/23 10:35:36;;;;;;;26.87;23.50;;;13.90;55.50;;;;;;5040630;28;20076;-55
2022/03/23 10:38:22;;;;;;;29.38;24.40;;;14.10;55.30;;;;;;5034887;28;20090;-57
2022/03/23 10:41:11;;;;;;;28.08;25.05;;;14.20;54.80;;;;;;5034050;28;20095;-52
2022/03/23 10:43:56;;;;;;;31.65;25.27;;;14.20;54.70;;;;;;5034587;28;20091;-55
2022/03/23 10:46:41;;;;;;;28.40;25.35;;;14.10;54.70;;;;;;5034828;28;20044;-53
2022/03/23 10:49:29;;;;;;;;;;;14.20;54.70;;;;;;5034725;28;20536;-52
2022/03/23 10:52:18;;;;;;;28.60;24.10;;;14.30;54.60;;;;;;5034802;28;19916;-56
2022/03/23 10:55:06;;;;;;;28.23;25.17;;;14.60;53.20;;;;;;5031523;28;20090;-56
2022/03/23 10:57:51;;;;;;;28.60;25.50;;;14.60;52.70;;;;;;5030634;28;20063;-56
2022/03/23 11:00:38;;;;;;;29.90;26.38;;;14.60;52.70;;;;;;5030743;28;20040;-56
2022/03/23 11:03:48;;;;;;;29.15;26.02;;;14.70;52.60;;;;;;5030127;28;20091;-57
2022/03/23 11:06:42;;;;;;;30.30;25.50;;;14.80;52.70;;;;;;5033887;28;20557;-55
2022/03/23 11:16:01;;;;;;;32.20;25.38;;;15.40;52.90;;;;;;5034685;28;20697;-54
2022/03/23 11:18:46;;;;;;;30.67;27.05;;;15.60;52.60;;;;;;5022039;28;20075;-56
2022/03/23 11:21:30;;;;;;;30.48;26.33;;;15.70;50.40;;;;;;5029270;28;20040;-52
2022/03/23 11:24:15;;;;;;;36.63;26.83;;;15.70;49.60;;;;;;5040764;28;20043;-53
2022/03/23 11:27:00;;;;;;;34.83;27.08;;;15.70;50.00;;;;;;5027103;28;20041;-55
2022/03/23 11:29:48;;;;;;;32.92;26.60;;;15.70;49.60;;;;;;5028895;28;20037;-55
2022/03/23 11:32:39;;;;;;;30.48;25.77;;;15.80;50.00;;;;;;5026694;28;20045;-53
2022/03/23 11:35:27;;;;;;;30.02;25.52;;;16.00;49.90;;;;;;5025966;28;20694;-55
2022/03/23 11:38:12;;;;;;;31.48;27.55;;;16.00;50.00;;;;;;5026930;28;20464;-55
2022/03/23 11:40:56;;;;;;;;;;;16.00;49.70;;;;;;5023652;28;20033;-58
2022/03/23 11:43:42;;;;;;;30.80;26.87;;;16.00;49.20;;;;;;5023833;28;19921;-53
2022/03/23 11:46:27;;;;;;;29.80;26.67;;;16.10;49.30;;;;;;5014092;28;20098;-56
2022/03/23 11:49:19;;;;;;;28.40;25.17;;;16.20;48.60;;;;;;5025418;28;20532;-55
2022/03/23 11:52:22;;;;;;;29.20;24.75;;;16.20;48.70;;;;;;5031025;28;20035;-50
2022/03/23 11:58:22;;;;;;;34.33;24.92;;;16.10;49.10;;;;;;5012997;28;20088;-51
2022/03/23 12:01:12;;;;;;;32.63;24.08;;;16.00;48.30;;;;;;5018311;28;20127;-55
2022/03/23 12:04:04;;;;;;;30.65;25.08;;;16.10;48.30;;;;;;5034944;28;20068;-54
2022/03/23 12:07:04;;;;;;;28.67;24.80;;;16.30;47.40;;;;;;5040844;28;20516;-52
2022/03/23 12:09:48;;;;;;;28.23;24.90;;;16.30;47.70;;;;;;5031477;28;20036;-55
2022/03/23 12:12:39;;;;;;;29.17;25.98;;;16.50;47.90;;;;;;5032300;28;20064;-52
2022/03/23 12:15:27;;;;;;;26.63;23.40;;;16.70;47.90;;;;;;5012627;28;20045;-55
2022/03/23 12:18:13;;;;;;;29.63;25.73;;;16.60;47.80;;;;;;5012700;28;20068;-54
2022/03/23 12:20:57;;;;;;;28.13;24.92;;;16.80;47.80;;;;;;5016490;28;20106;-50
2022/03/23 12:23:53;;;;;;;28.13;24.92;;;16.90;47.00;;;;;;5031440;28;20136;-55
2022/03/23 12:26:42;;;;;;;28.25;24.20;;;16.90;47.20;;;;;;5029246;28;20438;-53
2022/03/23 12:29:35;;;;;;;25.42;22.48;;;17.00;47.20;;;;;;5013002;28;20113;-53
2022/03/23 12:32:20;;;;;;;27.23;23.10;;;17.00;47.30;;;;;;5029217;28;20036;-56
2022/03/23 12:35:05;;;;;;;26.23;22.98;;;17.10;47.40;;;;;;5031126;28;20516;-50
2022/03/23 12:37:50;;;;;;;29.02;22.20;;;17.20;46.60;;;;;;5017798;28;20045;-58
2022/03/23 12:40:46;;;;;;;24.15;21.58;;;17.40;46.00;;;;;;5031183;28;20520;-53
2022/03/23 12:43:43;;;;;;;24.65;22.05;;;17.60;47.10;;;;;;5031512;28;20393;-54
2022/03/23 12:46:28;;;;;;;25.15;22.50;;;17.60;47.30;;;;;;5031672;28;20060;-52
2022/03/23 12:58:30;;;;;;;24.30;21.38;;;18.20;47.20;;;;;;5031348;28;20044;-58
2022/03/23 13:01:29;;;;;;;24.05;21.08;;;18.30;46.10;;;;;;5032813;28;20037;-54
2022/03/23 13:04:40;;;;;;;25.23;22.33;;;18.60;45.90;;;;;;5031536;28;20098;-53
2022/03/23 13:07:27;;;;;;;25.38;22.52;;;18.70;44.40;;;;;;5009221;28;20049;-56
2022/03/23 13:10:14;;;;;;;24.90;22.30;;;18.70;43.40;;;;;;5032175;28;20109;-52
2022/03/23 13:13:08;;;;;;;24.52;22.02;;;18.80;43.40;;;;;;5016502;28;20076;-53
2022/03/23 13:15:53;;;;;;;25.00;21.10;;;18.80;43.80;;;;;;5031609;28;20028;-53
2022/03/23 13:18:38;;;;;;;26.92;21.33;;;19.00;43.30;;;;;;5032642;28;20056;-56
2022/03/23 13:21:24;;;;;;;24.35;21.65;;;19.10;43.50;;;;;;5025320;28;20122;-58
2022/03/23 13:24:09;;;;;;;30.70;25.45;;;19.30;43.40;;;;;;5028220;28;20462;-52
2022/03/23 13:26:55;;;;;;;26.90;22.10;;;19.30;42.30;;;;;;5008432;28;20052;-57
2022/03/23 13:29:40;;;;;;;23.80;21.25;;;19.40;42.50;;;;;;5035315;28;20052;-56
2022/03/23 13:32:33;;;;;;;25.02;21.48;;;19.50;41.30;;;;;;5034810;28;20060;-54
2022/03/23 13:35:20;;;;;;;23.33;20.75;;;19.50;41.60;;;;;;5035707;28;20103;-54
2022/03/23 13:38:07;;;;;;;23.85;21.35;;;19.50;42.00;;;;;;5019198;28;20045;-52
2022/03/23 13:43:54;;;;;;;25.05;21.27;;;19.60;41.00;;;;;;5029977;28;20516;-55
2022/03/23 13:46:40;;;;;;;25.30;21.80;;;19.70;41.30;;;;;;5032077;28;20035;-56
2022/03/23 13:49:24;;;;;;;26.23;21.58;;;19.90;41.20;;;;;;5019657;28;20124;-55
2022/03/23 13:52:11;;;;;;;23.05;20.60;;;20.10;41.20;;;;;;5031961;28;20484;-58
2022/03/23 13:54:59;;;;;;;23.50;20.63;;;20.30;40.50;;;;;;5034232;28;20504;-53
2022/03/23 13:57:47;;;;;;;27.30;23.13;;;20.40;41.10;;;;;;5034659;28;20172;-54
2022/03/23 14:00:33;;;;;;;25.27;22.63;;;20.20;40.90;;;;;;5002344;28;20429;-54
2022/03/23 14:03:20;;;;;;;28.35;22.17;;;19.90;41.60;;;;;;5034159;28;20041;-54
2022/03/23 14:06:05;;;;;;;23.42;21.05;;;19.80;41.50;;;;;;5034186;28;20052;-55
2022/03/23 14:08:54;;;;;;;23.60;21.17;;;19.90;41.10;;;;;;5019999;28;20117;-56
2022/03/23 14:14:43;;;;;;;25.20;22.25;;;19.80;41.00;;;;;;5038127;28;20024;-54
2022/03/23 14:17:28;;;;;;;25.75;21.80;;;20.00;40.50;;;;;;5020361;28;20389;-57
2022/03/23 14:20:13;;;;;;;24.33;21.80;;;20.30;40.20;;;;;;5029352;28;20040;-57
2022/03/23 14:22:57;;;;;;;27.88;21.88;;;20.40;40.20;;;;;;5034103;28;20043;-53
2022/03/23 14:25:41;;;;;;;25.25;21.10;;;20.50;40.20;;;;;;5031943;28;20068;-56
2022/03/23 14:28:26;;;;;;;25.02;21.63;;;20.60;39.50;;;;;;5034110;28;20044;-55
2022/03/23 14:31:10;;;;;;;26.55;21.65;;;20.60;39.20;;;;;;5022416;28;20056;-51
2022/03/23 14:34:04;;;;;;;24.17;21.52;;;20.80;39.20;;;;;;5014826;28;20044;-54
2022/03/23 14:37:02;;;;;;;24.48;21.48;;;20.70;39.00;;;;;;5032272;28;20117;-54
2022/03/23 14:39:47;;;;;;;25.83;21.13;;;20.90;39.00;;;;;;5034934;28;20446;-50
2022/03/23 14:42:33;;;;;;;24.63;21.42;;;21.10;38.60;;;;;;5035009;28;20551;-53
2022/03/23 14:45:42;;;;;;;22.95;20.55;;;21.30;38.30;;;;;;5034731;28;20044;-55
2022/03/23 14:48:35;;;;;;;25.15;21.00;;;21.10;38.50;;;;;;5034574;28;20091;-57